createdAt,value
2019-03-18T00:00:45.593Z,94.80
2019-03-18T00:03:50.031Z,93.97
2019-03-18T00:06:54.794Z,92.05
2019-03-18T00:09:59.097Z,91.53
2019-03-18T00:13:03.407Z,91.02
2019-03-18T00:16:07.708Z,90.87
2019-03-18T00:19:11.973Z,90.43
2019-03-18T00:22:16.455Z,89.71
2019-03-18T00:25:20.986Z,89.49
2019-03-18T00:28:25.394Z,89.09
2019-03-18T00:31:29.827Z,89.00
2019-03-18T00:34:34.107Z,88.86
2019-03-18T00:37:38.507Z,89.02
2019-03-18T00:40:42.890Z,88.42
2019-03-18T00:43:47.198Z,88.29
2019-03-18T00:46:52.075Z,88.42
2019-03-18T00:49:56.507Z,88.56
2019-03-18T00:53:00.904Z,88.29
2019-03-18T00:56:05.382Z,88.16
2019-03-18T00:59:09.798Z,88.09
2019-03-18T01:02:14.117Z,88.03
2019-03-18T01:05:18.480Z,87.57
2019-03-18T01:08:23.170Z,87.30
2019-03-18T01:11:27.592Z,87.41
2019-03-18T01:14:31.888Z,87.36
2019-03-18T01:17:36.300Z,87.23
2019-03-18T01:25:41.534Z,87.59
2019-03-18T01:28:45.896Z,87.70
2019-03-18T01:31:50.194Z,87.95
2019-03-18T01:34:54.476Z,88.15
2019-03-18T01:37:58.905Z,87.78
2019-03-18T01:41:03.195Z,87.47
2019-03-18T01:44:07.457Z,87.14
2019-03-18T01:47:11.748Z,86.55
2019-03-18T01:50:16.110Z,85.82
2019-03-18T01:53:21.832Z,85.89
2019-03-18T01:56:27.321Z,86.05
2019-03-18T01:59:31.752Z,85.93
2019-03-18T02:02:36.169Z,86.05
2019-03-18T02:05:40.442Z,85.83
2019-03-18T02:08:44.827Z,85.79
2019-03-18T02:11:49.128Z,85.90
2019-03-18T02:14:53.401Z,86.03
2019-03-18T02:17:57.669Z,86.41
2019-03-18T02:21:01.941Z,87.03
2019-03-18T02:24:06.807Z,86.95
2019-03-18T02:27:11.122Z,87.33
2019-03-18T02:30:15.920Z,86.78
2019-03-18T02:33:20.394Z,86.49
2019-03-18T02:36:24.666Z,86.71
2019-03-18T02:39:28.936Z,86.60
2019-03-18T02:42:33.218Z,86.85
2019-03-18T02:45:37.487Z,86.82
2019-03-18T02:48:41.780Z,86.98
2019-03-18T02:51:47.535Z,87.14
2019-03-18T02:54:51.831Z,86.68
2019-03-18T02:57:56.141Z,86.62
2019-03-18T03:01:00.403Z,85.64
2019-03-18T03:04:04.697Z,85.63
2019-03-18T03:07:09.179Z,85.59
2019-03-18T03:10:13.897Z,85.39
2019-03-18T03:13:18.157Z,85.68
2019-03-18T03:16:27.149Z,85.67
2019-03-18T03:19:28.557Z,86.15
2019-03-18T03:22:32.911Z,88.53
2019-03-18T03:25:37.201Z,90.30
2019-03-18T03:28:41.448Z,91.92
2019-03-18T03:31:45.850Z,92.61
2019-03-18T03:34:51.986Z,93.42
2019-03-18T03:37:57.934Z,93.40
2019-03-18T03:41:03.985Z,92.63
2019-03-18T03:44:08.283Z,92.21
2019-03-18T03:47:14.982Z,92.47
2019-03-18T03:50:19.262Z,92.42
2019-03-18T03:53:23.538Z,93.13
2019-03-18T03:56:27.915Z,93.35
2019-03-18T03:59:34.901Z,93.13
2019-03-18T04:02:39.613Z,92.98
2019-03-18T04:05:45.783Z,92.55
2019-03-18T04:08:50.076Z,92.99
2019-03-18T04:11:54.595Z,93.00
2019-03-18T04:14:58.856Z,93.42
2019-03-18T04:18:03.124Z,93.90
2019-03-18T04:21:07.500Z,94.43
2019-03-18T04:24:11.859Z,94.42
2019-03-18T04:27:18.011Z,93.26
2019-03-18T04:30:22.276Z,92.39
2019-03-18T04:33:28.452Z,92.70
2019-03-18T04:36:32.745Z,92.06
2019-03-18T04:39:37.018Z,91.97
2019-03-18T04:42:44.129Z,91.57
2019-03-18T04:45:51.616Z,91.43
2019-03-18T04:48:58.495Z,91.06
2019-03-18T04:52:02.735Z,91.20
2019-03-18T04:55:07.218Z,90.30
2019-03-18T04:58:11.492Z,89.83
2019-03-18T05:01:15.916Z,89.48
2019-03-18T05:04:21.289Z,88.84
2019-03-18T05:07:25.564Z,88.81
2019-03-18T05:10:29.857Z,88.88
2019-03-18T05:13:37.053Z,88.16
2019-03-18T05:16:42.915Z,88.21
2019-03-18T05:19:48.651Z,87.96
2019-03-18T05:22:54.717Z,87.19
2019-03-18T05:25:58.993Z,87.64
2019-03-18T05:29:03.259Z,86.92
2019-03-18T05:32:07.534Z,86.71
2019-03-18T05:35:15.127Z,86.49
2019-03-18T05:38:19.433Z,86.22
2019-03-18T05:41:23.730Z,86.40
2019-03-18T05:44:28.003Z,86.54
2019-03-18T05:47:39.368Z,87.29
2019-03-18T05:50:39.907Z,87.18
2019-03-18T05:53:44.187Z,87.53
2019-03-18T05:56:48.503Z,88.21
2019-03-18T05:59:52.788Z,88.11
2019-03-18T06:02:57.067Z,87.37
2019-03-18T06:06:01.365Z,87.07
2019-03-18T06:09:07.062Z,87.28
2019-03-18T06:12:11.369Z,86.21
2019-03-18T06:15:15.646Z,85.28
2019-03-18T06:18:20.031Z,85.20
2019-03-18T06:21:24.309Z,84.47
2019-03-18T06:24:28.577Z,84.43
2019-03-18T06:27:34.065Z,84.32
2019-03-18T06:30:38.342Z,84.60
2019-03-18T06:33:42.643Z,84.93
2019-03-18T06:36:46.937Z,84.93
2019-03-18T06:39:51.260Z,86.25
2019-03-18T06:42:55.614Z,88.20
2019-03-18T06:45:59.890Z,88.11
2019-03-18T06:49:04.170Z,87.70
2019-03-18T06:52:08.472Z,88.11
2019-03-18T06:55:12.953Z,88.35
2019-03-18T06:58:17.240Z,88.44
2019-03-18T07:01:21.532Z,87.70
2019-03-18T07:04:25.808Z,88.02
2019-03-18T07:07:30.089Z,88.59
2019-03-18T07:10:34.358Z,87.67
2019-03-18T07:13:40.070Z,87.08
2019-03-18T07:16:44.585Z,86.26
2019-03-18T07:19:51.835Z,85.26
2019-03-18T07:22:56.375Z,85.45
2019-03-18T07:26:00.687Z,85.08
2019-03-18T07:29:04.968Z,82.77
2019-03-18T07:32:09.355Z,82.93
2019-03-18T07:35:13.834Z,83.17
2019-03-18T07:38:18.124Z,82.19
2019-03-18T07:41:22.479Z,82.28
2019-03-18T07:44:26.733Z,82.65
2019-03-18T07:47:31.009Z,83.71
2019-03-18T07:50:35.291Z,84.76
2019-03-18T07:53:43.541Z,85.78
2019-03-18T07:56:50.629Z,87.18
2019-03-18T07:59:56.096Z,90.23
2019-03-18T08:03:03.295Z,91.19
2019-03-18T08:06:06.687Z,91.91
2019-03-18T08:09:11.114Z,91.14
2019-03-18T08:12:15.572Z,90.06
2019-03-18T08:15:21.403Z,90.35
2019-03-18T08:18:25.679Z,89.58
2019-03-18T08:21:29.968Z,89.41
2019-03-18T08:24:34.276Z,88.41
2019-03-18T08:27:38.669Z,87.82
2019-03-18T08:30:43.038Z,87.28
2019-03-18T08:33:48.802Z,86.33
2019-03-18T08:36:55.265Z,86.25
2019-03-18T08:40:02.203Z,84.61
2019-03-18T08:43:06.520Z,86.04
2019-03-18T08:46:10.836Z,87.75
2019-03-18T08:49:15.257Z,88.78
2019-03-18T08:52:19.532Z,90.51
2019-03-18T08:55:23.839Z,89.76
2019-03-18T08:58:28.114Z,89.87
2019-03-18T09:01:32.405Z,90.47
2019-03-18T09:04:36.726Z,89.27
2019-03-18T09:07:41.012Z,88.72
2019-03-18T09:10:45.303Z,88.48
2019-03-18T09:13:49.712Z,87.66
2019-03-18T09:16:54.006Z,88.04
2019-03-18T09:20:00.259Z,88.01
2019-03-18T09:23:04.813Z,87.21
2019-03-18T09:26:09.155Z,86.87
2019-03-18T09:29:13.622Z,86.02
2019-03-18T09:32:17.902Z,86.24
2019-03-18T09:35:22.290Z,85.05
2019-03-18T09:38:26.692Z,85.07
2019-03-18T09:41:34.052Z,84.77
2019-03-18T09:44:40.167Z,84.63
2019-03-18T09:47:45.817Z,83.73
2019-03-18T09:50:52.894Z,84.30
2019-03-18T09:53:58.294Z,82.15
2019-03-18T09:57:02.601Z,82.25
2019-03-18T10:00:07.228Z,83.14
2019-03-18T10:03:11.554Z,85.19
2019-03-18T10:06:16.940Z,85.76
2019-03-18T10:09:21.344Z,86.55
2019-03-18T10:12:25.848Z,86.48
2019-03-18T10:15:30.148Z,86.53
2019-03-18T10:18:34.420Z,85.11
2019-03-18T10:21:38.728Z,83.90
2019-03-18T10:24:43.004Z,83.36
2019-03-18T10:27:47.309Z,81.37
2019-03-18T10:30:52.732Z,80.62
2019-03-18T10:33:57.012Z,79.71
2019-03-18T10:37:01.447Z,78.37
2019-03-18T10:40:06.638Z,77.72
2019-03-18T10:43:10.916Z,75.63
2019-03-18T10:46:15.366Z,75.16
2019-03-18T10:49:19.651Z,75.50
2019-03-18T10:52:24.262Z,74.61
2019-03-18T10:55:28.552Z,74.55
2019-03-18T10:58:32.811Z,75.07
2019-03-18T11:01:37.199Z,73.68
2019-03-18T11:04:41.563Z,74.05
2019-03-18T11:07:46.050Z,75.21
2019-03-18T11:10:50.341Z,78.96
2019-03-18T11:13:58.746Z,83.62
2019-03-18T11:17:03.040Z,83.69
2019-03-18T11:20:08.525Z,83.40
2019-03-18T11:23:12.808Z,82.60
2019-03-18T11:26:18.201Z,79.18
2019-03-18T11:29:22.484Z,75.93
2019-03-18T11:32:26.795Z,75.05
2019-03-18T11:35:32.200Z,73.62
2019-03-18T11:38:36.498Z,71.29
2019-03-18T11:41:40.789Z,72.36
2019-03-18T11:44:45.067Z,70.75
2019-03-18T11:47:49.393Z,71.01
2019-03-18T11:50:55.495Z,70.47
2019-03-18T11:53:59.947Z,70.99
2019-03-18T11:57:04.430Z,70.79
2019-03-18T12:00:11.932Z,72.73
2019-03-18T12:03:18.328Z,78.19
2019-03-18T12:06:22.210Z,79.79
2019-03-18T12:09:26.540Z,79.67
2019-03-18T12:12:30.871Z,76.05
2019-03-18T12:15:36.572Z,72.35
2019-03-18T12:18:41.036Z,71.70
2019-03-18T12:21:45.371Z,69.05
2019-03-18T12:24:49.742Z,69.21
2019-03-18T12:27:56.179Z,68.74
2019-03-18T12:31:16.746Z,69.52
2019-03-18T12:34:36.950Z,69.32
2019-03-18T12:37:57.210Z,68.14
2019-03-18T12:41:04.204Z,70.19
2019-03-18T12:44:10.174Z,75.44
2019-03-18T12:47:18.167Z,77.78
2019-03-18T12:50:38.630Z,77.80
2019-03-18T12:53:29.676Z,77.17
2019-03-18T12:56:34.373Z,77.35
2019-03-18T12:59:39.855Z,75.88
2019-03-18T13:02:47.086Z,74.38
2019-03-18T13:05:51.595Z,73.48
2019-03-18T13:08:55.882Z,69.80
2019-03-18T13:12:00.326Z,70.04
2019-03-18T13:15:05.791Z,66.48
2019-03-18T13:18:10.444Z,66.50
2019-03-18T13:21:14.777Z,67.03
2019-03-18T13:24:19.342Z,66.37
2019-03-18T13:27:24.061Z,66.56
2019-03-18T13:30:29.670Z,67.26
2019-03-18T13:33:34.183Z,66.26
2019-03-18T13:36:38.542Z,65.64
2019-03-18T13:39:43.089Z,65.13
2019-03-18T13:42:47.371Z,65.35
2019-03-18T13:45:55.687Z,65.42
2019-03-18T13:48:57.893Z,63.60
2019-03-18T13:52:03.309Z,64.82
2019-03-18T13:55:07.754Z,65.01
2019-03-18T13:58:12.060Z,66.94
2019-03-18T14:01:16.352Z,68.43
2019-03-18T14:04:20.639Z,72.16
2019-03-18T14:07:24.952Z,78.18
2019-03-18T14:10:29.253Z,83.34
2019-03-18T14:13:33.663Z,84.72
2019-03-18T14:16:37.998Z,86.14
2019-03-18T14:19:42.323Z,85.88
2019-03-18T14:22:48.441Z,86.23
2019-03-18T14:25:52.930Z,86.38
2019-03-18T14:28:57.331Z,85.98
2019-03-18T14:32:01.795Z,85.11
2019-03-18T14:35:08.110Z,85.77
2019-03-18T14:38:12.407Z,86.00
2019-03-18T14:41:17.888Z,84.94
2019-03-18T14:44:24.741Z,83.31
2019-03-18T14:47:29.040Z,80.46
2019-03-18T14:50:33.438Z,77.05
2019-03-18T14:53:37.723Z,76.18
2019-03-18T14:56:42.107Z,75.28
2019-03-18T14:59:46.424Z,74.68
2019-03-18T15:02:50.893Z,73.13
2019-03-18T15:05:55.151Z,73.76
2019-03-18T15:09:02.362Z,73.44
2019-03-18T15:12:06.625Z,73.02
2019-03-18T15:15:14.154Z,70.78
2019-03-18T15:18:18.454Z,70.71
2019-03-18T15:21:22.769Z,70.88
2019-03-18T15:24:27.043Z,72.06
2019-03-18T15:27:31.331Z,73.62
2019-03-18T15:30:37.136Z,71.73
2019-03-18T15:33:41.405Z,71.37
2019-03-18T15:36:45.686Z,72.10
2019-03-18T15:39:50.002Z,71.41
2019-03-18T15:42:54.311Z,70.01
2019-03-18T15:45:58.760Z,70.33
2019-03-18T15:49:03.045Z,69.95
2019-03-18T15:52:11.395Z,70.17
2019-03-18T15:55:13.925Z,70.44
2019-03-18T15:58:19.225Z,69.45
2019-03-18T16:01:25.593Z,68.42
2019-03-18T16:04:29.887Z,69.42
2019-03-18T16:07:34.228Z,69.46
2019-03-18T16:10:38.530Z,69.72
2019-03-18T16:13:42.835Z,69.93
2019-03-18T16:16:47.297Z,70.54
2019-03-18T16:19:51.602Z,70.57
2019-03-18T16:22:55.890Z,71.26
2019-03-18T16:26:00.271Z,72.17
2019-03-18T16:29:05.689Z,71.71
2019-03-18T16:32:11.516Z,71.96
2019-03-18T16:35:16.503Z,72.70
2019-03-18T16:38:20.875Z,73.00
2019-03-18T16:41:25.295Z,72.93
2019-03-18T16:44:29.579Z,73.76
2019-03-18T16:47:33.875Z,73.68
2019-03-18T16:50:40.647Z,74.21
2019-03-18T16:53:44.975Z,74.10
2019-03-18T16:56:52.066Z,73.53
2019-03-18T16:59:56.428Z,73.99
2019-03-18T17:03:09.671Z,74.04
2019-03-18T17:06:13.964Z,74.48
2019-03-18T17:09:18.269Z,74.46
2019-03-18T17:12:22.556Z,75.34
2019-03-18T17:15:26.857Z,74.45
2019-03-18T17:18:31.142Z,74.68
2019-03-18T17:21:37.330Z,74.95
2019-03-18T17:24:41.670Z,75.17
2019-03-18T17:27:46.094Z,75.15
2019-03-18T17:30:50.424Z,75.26
2019-03-18T17:33:54.732Z,74.98
2019-03-18T17:36:59.136Z,75.04
2019-03-18T17:40:03.443Z,75.20
2019-03-18T17:43:09.132Z,75.07
2019-03-18T17:46:13.413Z,75.24
2019-03-18T17:49:17.803Z,75.71
2019-03-18T17:52:22.149Z,76.15
2019-03-18T17:55:26.431Z,76.49
2019-03-18T17:58:30.748Z,76.35
2019-03-18T18:01:36.459Z,76.12
2019-03-18T18:04:40.961Z,76.44
2019-03-18T18:07:45.252Z,76.07
2019-03-18T18:10:49.545Z,76.42
2019-03-18T18:13:53.913Z,76.54
2019-03-18T18:16:58.187Z,76.66
2019-03-18T18:20:02.486Z,76.81
2019-03-18T18:23:14.381Z,76.83
2019-03-18T18:26:14.767Z,77.03
2019-03-18T18:29:20.872Z,77.37
2019-03-18T18:32:29.113Z,77.60
2019-03-18T18:35:33.407Z,77.75
2019-03-18T18:38:37.788Z,77.52
2019-03-18T18:41:42.227Z,77.39
2019-03-18T18:44:46.600Z,77.27
2019-03-18T18:47:51.040Z,77.08
2019-03-18T18:50:55.440Z,76.74
2019-03-18T18:53:59.748Z,76.53
2019-03-18T18:57:04.305Z,76.53
2019-03-18T19:00:10.954Z,77.02
2019-03-18T19:03:15.349Z,77.02
2019-03-18T19:06:19.916Z,77.25
2019-03-18T19:09:26.304Z,77.72
2019-03-18T19:12:32.103Z,77.69
2019-03-18T19:15:37.874Z,77.66
2019-03-18T19:18:42.321Z,77.42
2019-03-18T19:21:46.691Z,77.50
2019-03-18T19:24:51.107Z,77.48
2019-03-18T19:27:55.734Z,77.62
2019-03-18T19:31:00.055Z,77.28
2019-03-18T19:34:06.222Z,77.25
2019-03-18T19:37:11.788Z,77.05
2019-03-18T19:40:17.501Z,76.87
2019-03-18T19:43:22.129Z,76.95
2019-03-18T19:46:27.029Z,76.85
2019-03-18T19:49:31.616Z,77.18
2019-03-18T19:52:36.411Z,76.77
2019-03-18T19:55:40.958Z,77.28
2019-03-18T19:58:45.645Z,77.43
2019-03-18T20:01:51.353Z,77.58
2019-03-18T20:04:55.855Z,77.53
2019-03-18T20:08:00.575Z,77.86
2019-03-18T20:11:06.243Z,78.11
2019-03-18T20:14:11.923Z,78.26
2019-03-18T20:17:16.746Z,78.26
2019-03-18T20:20:21.397Z,78.50
2019-03-18T20:23:27.748Z,78.49
2019-03-18T20:26:32.569Z,78.81
2019-03-18T20:29:37.280Z,79.33
2019-03-18T20:32:42.742Z,79.55
2019-03-18T20:35:47.357Z,79.59
2019-03-18T20:38:51.894Z,79.59
2019-03-18T20:41:56.590Z,79.50
2019-03-18T20:45:01.423Z,79.68
2019-03-18T20:48:05.873Z,79.52
2019-03-18T20:51:10.501Z,79.67
2019-03-18T20:54:14.867Z,79.98
2019-03-18T20:57:19.199Z,80.08
2019-03-18T21:00:23.540Z,80.10
2019-03-18T21:03:30.935Z,80.19
2019-03-18T21:06:37.045Z,80.57
2019-03-18T21:09:41.443Z,80.45
2019-03-18T21:12:49.730Z,80.33
2019-03-18T21:15:54.226Z,80.47
2019-03-18T21:19:01.030Z,80.64
2019-03-18T21:22:05.326Z,80.79
2019-03-18T21:25:10.585Z,80.65
2019-03-18T21:28:14.906Z,80.79
2019-03-18T21:31:19.229Z,80.97
2019-03-18T21:34:23.585Z,80.91
2019-03-18T21:37:27.968Z,81.04
2019-03-18T21:40:32.281Z,81.52
2019-03-18T21:43:36.599Z,81.81
2019-03-18T21:46:43.258Z,81.86
2019-03-18T21:49:46.942Z,82.23
2019-03-18T21:52:52.470Z,82.32
2019-03-18T21:55:56.750Z,82.51
2019-03-18T21:59:02.006Z,82.34
2019-03-18T22:02:07.683Z,82.42
2019-03-18T22:05:12.171Z,82.43
2019-03-18T22:08:16.474Z,82.45
2019-03-18T22:11:20.768Z,82.63
2019-03-18T22:14:25.205Z,82.47
2019-03-18T22:17:29.593Z,82.69
2019-03-18T22:20:33.922Z,82.87
2019-03-18T22:23:40.367Z,83.06
2019-03-18T22:26:47.517Z,82.97
2019-03-18T22:29:51.797Z,83.32
2019-03-18T22:32:56.217Z,83.19
2019-03-18T22:36:00.545Z,83.59
2019-03-18T22:39:09.041Z,83.62
2019-03-18T22:42:13.310Z,83.67
2019-03-18T22:45:17.652Z,83.93
2019-03-18T22:48:21.944Z,84.10
2019-03-18T22:51:26.245Z,83.96
2019-03-18T22:54:30.611Z,84.03
2019-03-18T22:57:35.454Z,83.85
2019-03-18T23:00:47.856Z,83.56
2019-03-18T23:03:53.272Z,83.71
2019-03-18T23:06:58.425Z,83.70
2019-03-18T23:10:03.689Z,83.57
2019-03-18T23:13:09.019Z,83.43
2019-03-18T23:16:15.122Z,82.98
2019-03-18T23:19:21.127Z,82.88
2019-03-18T23:22:26.331Z,82.68
2019-03-18T23:25:31.656Z,82.80
2019-03-18T23:28:36.861Z,82.74
2019-03-18T23:31:41.837Z,82.48
2019-03-18T23:34:49.404Z,82.10
2019-03-18T23:37:56.476Z,82.08
2019-03-18T23:41:03.708Z,82.31
2019-03-18T23:44:08.100Z,82.54
2019-03-18T23:47:12.412Z,82.95
2019-03-18T23:50:16.938Z,83.15
2019-03-18T23:53:21.427Z,82.93
2019-03-18T23:56:25.656Z,83.08
2019-03-18T23:59:30.224Z,83.36
